sensor_id;sensor_type;location;lat;lon;timestamp;temperature;humidity
20070;DHT22;10195;50.868;4.382;2023-03-18T00:01:05;14.20;99.90
20070;DHT22;10195;50.868;4.382;2023-03-18T00:03:32;14.10;99.90
20070;DHT22;10195;50.868;4.382;2023-03-18T00:06:03;14.00;99.90
20070;DHT22;10195;50.868;4.382;2023-03-18T00:08:29;13.90;99.90
20070;DHT22;10195;50.868;4.382;2023-03-18T00:10:56;14.00;99.90
20070;DHT22;10195;50.868;4.382;2023-03-18T00:13:23;14.10;99.90
20070;DHT22;10195;50.868;4.382;2023-03-18T00:15:50;14.20;99.90
20070;DHT22;10195;50.868;4.382;2023-03-18T00:18:16;14.20;99.90
20070;DHT22;10195;50.868;4.382;2023-03-18T00:20:43;14.10;99.90
20070;DHT22;10195;50.868;4.382;2023-03-18T00:23:09;14.10;99.90
20070;DHT22;10195;50.868;4.382;2023-03-18T00:25:36;14.10;99.90
20070;DHT22;10195;50.868;4.382;2023-03-18T00:28:04;14.10;99.90
20070;DHT22;10195;50.868;4.382;2023-03-18T00:30:31;14.00;99.90
20070;DHT22;10195;50.868;4.382;2023-03-18T00:32:57;13.90;99.90
20070;DHT22;10195;50.868;4.382;2023-03-18T00:35:25;13.80;99.90
20070;DHT22;10195;50.868;4.382;2023-03-18T00:37:53;13.80;99.90
20070;DHT22;10195;50.868;4.382;2023-03-18T00:40:20;13.70;99.90
20070;DHT22;10195;50.868;4.382;2023-03-18T00:42:52;13.70;99.90
20070;DHT22;10195;50.868;4.382;2023-03-18T00:45:22;13.80;99.90
20070;DHT22;10195;50.868;4.382;2023-03-18T00:47:48;13.80;99.90
20070;DHT22;10195;50.868;4.382;2023-03-18T00:50:15;13.70;99.90
20070;DHT22;10195;50.868;4.382;2023-03-18T00:52:41;13.80;99.90
20070;DHT22;10195;50.868;4.382;2023-03-18T00:55:08;13.80;99.90
20070;DHT22;10195;50.868;4.382;2023-03-18T00:57:35;13.70;99.90
20070;DHT22;10195;50.868;4.382;2023-03-18T01:00:01;13.60;99.90
20070;DHT22;10195;50.868;4.382;2023-03-18T01:02:28;13.50;99.90
20070;DHT22;10195;50.868;4.382;2023-03-18T01:04:55;13.50;99.90
20070;DHT22;10195;50.868;4.382;2023-03-18T01:07:22;13.50;99.90
20070;DHT22;10195;50.868;4.382;2023-03-18T01:09:48;13.50;99.90
20070;DHT22;10195;50.868;4.382;2023-03-18T01:12:14;13.40;99.90
20070;DHT22;10195;50.868;4.382;2023-03-18T01:14:40;13.40;99.90
20070;DHT22;10195;50.868;4.382;2023-03-18T01:17:06;13.40;99.90
20070;DHT22;10195;50.868;4.382;2023-03-18T01:19:33;13.40;99.90
20070;DHT22;10195;50.868;4.382;2023-03-18T01:22:00;13.40;99.90
20070;DHT22;10195;50.868;4.382;2023-03-18T01:24:25;13.40;99.90
20070;DHT22;10195;50.868;4.382;2023-03-18T01:26:52;13.40;99.90
20070;DHT22;10195;50.868;4.382;2023-03-18T01:29:18;13.50;99.90
20070;DHT22;10195;50.868;4.382;2023-03-18T01:31:45;13.40;99.90
20070;DHT22;10195;50.868;4.382;2023-03-18T01:34:12;13.30;99.90
20070;DHT22;10195;50.868;4.382;2023-03-18T01:36:38;13.30;99.90
20070;DHT22;10195;50.868;4.382;2023-03-18T01:39:05;13.40;99.90
20070;DHT22;10195;50.868;4.382;2023-03-18T01:41:32;13.50;99.90
20070;DHT22;10195;50.868;4.382;2023-03-18T01:43:57;13.50;99.90
20070;DHT22;10195;50.868;4.382;2023-03-18T01:46:37;13.40;99.90
20070;DHT22;10195;50.868;4.382;2023-03-18T01:55:02;13.50;99.90
20070;DHT22;10195;50.868;4.382;2023-03-18T01:57:29;13.40;99.90
20070;DHT22;10195;50.868;4.382;2023-03-18T01:59:56;13.50;99.90
20070;DHT22;10195;50.868;4.382;2023-03-18T02:02:23;13.30;99.90
20070;DHT22;10195;50.868;4.382;2023-03-18T02:04:50;13.40;99.90
20070;DHT22;10195;50.868;4.382;2023-03-18T02:07:19;13.40;99.90
20070;DHT22;10195;50.868;4.382;2023-03-18T02:09:46;13.30;99.90
20070;DHT22;10195;50.868;4.382;2023-03-18T02:12:16;13.20;99.90
20070;DHT22;10195;50.868;4.382;2023-03-18T02:14:44;13.20;99.90
20070;DHT22;10195;50.868;4.382;2023-03-18T02:17:19;13.20;99.90
20070;DHT22;10195;50.868;4.382;2023-03-18T02:27:39;13.40;99.90
20070;DHT22;10195;50.868;4.382;2023-03-18T02:30:16;13.30;99.90
20070;DHT22;10195;50.868;4.382;2023-03-18T02:32:44;13.40;99.90
20070;DHT22;10195;50.868;4.382;2023-03-18T02:35:11;13.40;99.90
20070;DHT22;10195;50.868;4.382;2023-03-18T02:37:38;13.40;99.90
20070;DHT22;10195;50.868;4.382;2023-03-18T02:42:38;13.30;99.90
20070;DHT22;10195;50.868;4.382;2023-03-18T02:45:07;13.20;99.90
20070;DHT22;10195;50.868;4.382;2023-03-18T02:47:39;13.20;99.90
20070;DHT22;10195;50.868;4.382;2023-03-18T02:50:07;13.20;99.90
20070;DHT22;10195;50.868;4.382;2023-03-18T02:52:33;13.10;99.90
20070;DHT22;10195;50.868;4.382;2023-03-18T02:54:59;13.00;99.90
20070;DHT22;10195;50.868;4.382;2023-03-18T02:57:26;12.80;99.90
20070;DHT22;10195;50.868;4.382;2023-03-18T02:59:53;12.80;99.90
20070;DHT22;10195;50.868;4.382;2023-03-18T03:02:18;12.70;99.90
20070;DHT22;10195;50.868;4.382;2023-03-18T03:04:44;12.60;99.90
20070;DHT22;10195;50.868;4.382;2023-03-18T03:07:10;12.50;99.90
20070;DHT22;10195;50.868;4.382;2023-03-18T03:09:36;12.60;99.90
20070;DHT22;10195;50.868;4.382;2023-03-18T03:12:02;12.60;99.90
20070;DHT22;10195;50.868;4.382;2023-03-18T03:14:28;12.60;99.90
20070;DHT22;10195;50.868;4.382;2023-03-18T03:16:54;12.70;99.90
20070;DHT22;10195;50.868;4.382;2023-03-18T03:19:19;12.70;99.90
20070;DHT22;10195;50.868;4.382;2023-03-18T03:21:45;12.60;99.90
20070;DHT22;10195;50.868;4.382;2023-03-18T03:24:11;12.50;99.90
20070;DHT22;10195;50.868;4.382;2023-03-18T03:26:36;12.50;99.90
20070;DHT22;10195;50.868;4.382;2023-03-18T03:29:03;12.40;99.90
20070;DHT22;10195;50.868;4.382;2023-03-18T03:31:29;12.40;99.90
20070;DHT22;10195;50.868;4.382;2023-03-18T03:33:55;12.40;99.90
20070;DHT22;10195;50.868;4.382;2023-03-18T03:36:20;12.30;99.90
20070;DHT22;10195;50.868;4.382;2023-03-18T03:38:47;12.20;99.90
20070;DHT22;10195;50.868;4.382;2023-03-18T03:41:13;12.30;99.90
20070;DHT22;10195;50.868;4.382;2023-03-18T03:43:40;12.30;99.90
20070;DHT22;10195;50.868;4.382;2023-03-18T03:46:07;12.20;99.90
20070;DHT22;10195;50.868;4.382;2023-03-18T03:48:34;12.10;99.90
20070;DHT22;10195;50.868;4.382;2023-03-18T03:51:00;12.10;99.90
20070;DHT22;10195;50.868;4.382;2023-03-18T03:53:26;12.10;99.90
20070;DHT22;10195;50.868;4.382;2023-03-18T03:55:53;12.10;99.90
20070;DHT22;10195;50.868;4.382;2023-03-18T03:58:19;12.10;99.90
20070;DHT22;10195;50.868;4.382;2023-03-18T04:00:45;12.00;99.90
20070;DHT22;10195;50.868;4.382;2023-03-18T04:03:10;12.00;99.90
20070;DHT22;10195;50.868;4.382;2023-03-18T04:05:36;12.00;99.90
20070;DHT22;10195;50.868;4.382;2023-03-18T04:08:02;11.90;99.90
20070;DHT22;10195;50.868;4.382;2023-03-18T04:10:28;11.90;99.90
20070;DHT22;10195;50.868;4.382;2023-03-18T04:12:55;11.90;99.90
20070;DHT22;10195;50.868;4.382;2023-03-18T04:15:21;12.00;99.90
20070;DHT22;10195;50.868;4.382;2023-03-18T04:17:48;11.90;99.90
20070;DHT22;10195;50.868;4.382;2023-03-18T04:20:14;12.00;99.90
20070;DHT22;10195;50.868;4.382;2023-03-18T04:22:41;12.10;99.90
20070;DHT22;10195;50.868;4.382;2023-03-18T04:25:08;12.00;99.90
20070;DHT22;10195;50.868;4.382;2023-03-18T04:27:35;11.90;99.90
20070;DHT22;10195;50.868;4.382;2023-03-18T04:30:03;11.80;99.90
20070;DHT22;10195;50.868;4.382;2023-03-18T04:32:29;11.70;99.90
20070;DHT22;10195;50.868;4.382;2023-03-18T04:34:54;11.80;99.90
20070;DHT22;10195;50.868;4.382;2023-03-18T04:37:20;11.70;99.90
20070;DHT22;10195;50.868;4.382;2023-03-18T04:39:47;11.70;99.90
20070;DHT22;10195;50.868;4.382;2023-03-18T04:42:13;11.60;99.90
20070;DHT22;10195;50.868;4.382;2023-03-18T04:44:38;11.50;99.90
20070;DHT22;10195;50.868;4.382;2023-03-18T04:47:05;11.60;99.90
20070;DHT22;10195;50.868;4.382;2023-03-18T04:49:32;11.50;99.90
20070;DHT22;10195;50.868;4.382;2023-03-18T04:51:59;11.50;99.90
20070;DHT22;10195;50.868;4.382;2023-03-18T04:54:24;11.40;99.90
20070;DHT22;10195;50.868;4.382;2023-03-18T04:56:50;11.40;99.90
20070;DHT22;10195;50.868;4.382;2023-03-18T04:59:16;11.40;99.90
20070;DHT22;10195;50.868;4.382;2023-03-18T05:01:43;11.50;99.90
20070;DHT22;10195;50.868;4.382;2023-03-18T05:04:09;11.40;99.90
20070;DHT22;10195;50.868;4.382;2023-03-18T05:06:34;11.20;99.90
20070;DHT22;10195;50.868;4.382;2023-03-18T05:09:03;11.30;99.90
20070;DHT22;10195;50.868;4.382;2023-03-18T05:11:33;11.30;99.90
20070;DHT22;10195;50.868;4.382;2023-03-18T05:13:59;11.30;99.90
20070;DHT22;10195;50.868;4.382;2023-03-18T05:16:25;11.40;99.90
20070;DHT22;10195;50.868;4.382;2023-03-18T05:18:51;11.40;99.90
20070;DHT22;10195;50.868;4.382;2023-03-18T05:21:17;11.30;99.90
20070;DHT22;10195;50.868;4.382;2023-03-18T05:23:42;11.30;99.90
20070;DHT22;10195;50.868;4.382;2023-03-18T05:26:08;11.40;99.90
20070;DHT22;10195;50.868;4.382;2023-03-18T05:28:36;11.60;99.90
20070;DHT22;10195;50.868;4.382;2023-03-18T05:31:04;11.50;99.90
20070;DHT22;10195;50.868;4.382;2023-03-18T05:33:29;11.50;99.90
20070;DHT22;10195;50.868;4.382;2023-03-18T05:35:56;11.40;99.90
20070;DHT22;10195;50.868;4.382;2023-03-18T05:38:22;11.30;99.90
20070;DHT22;10195;50.868;4.382;2023-03-18T05:40:48;11.30;99.90
20070;DHT22;10195;50.868;4.382;2023-03-18T05:43:13;11.20;99.90
20070;DHT22;10195;50.868;4.382;2023-03-18T05:45:39;11.20;99.90
20070;DHT22;10195;50.868;4.382;2023-03-18T05:48:05;11.30;99.90
20070;DHT22;10195;50.868;4.382;2023-03-18T05:50:42;11.30;99.90
20070;DHT22;10195;50.868;4.382;2023-03-18T05:53:08;11.20;99.90
20070;DHT22;10195;50.868;4.382;2023-03-18T05:55:35;11.20;99.90
20070;DHT22;10195;50.868;4.382;2023-03-18T05:58:01;11.20;99.90
20070;DHT22;10195;50.868;4.382;2023-03-18T06:00:28;11.20;99.90
20070;DHT22;10195;50.868;4.382;2023-03-18T06:02:55;11.20;99.90
20070;DHT22;10195;50.868;4.382;2023-03-18T06:05:22;11.10;99.90
20070;DHT22;10195;50.868;4.382;2023-03-18T06:07:49;11.20;99.90
20070;DHT22;10195;50.868;4.382;2023-03-18T06:10:14;11.20;99.90
20070;DHT22;10195;50.868;4.382;2023-03-18T06:12:40;11.40;99.90
20070;DHT22;10195;50.868;4.382;2023-03-18T06:15:08;11.30;99.90
20070;DHT22;10195;50.868;4.382;2023-03-18T06:17:34;11.40;99.90
20070;DHT22;10195;50.868;4.382;2023-03-18T06:20:01;11.50;99.90
20070;DHT22;10195;50.868;4.382;2023-03-18T06:22:27;11.50;99.90
20070;DHT22;10195;50.868;4.382;2023-03-18T06:24:53;11.40;99.90
20070;DHT22;10195;50.868;4.382;2023-03-18T06:27:18;11.30;99.90
20070;DHT22;10195;50.868;4.382;2023-03-18T06:29:44;11.30;99.90
20070;DHT22;10195;50.868;4.382;2023-03-18T06:32:10;11.30;99.90
20070;DHT22;10195;50.868;4.382;2023-03-18T06:34:36;11.40;99.90
20070;DHT22;10195;50.868;4.382;2023-03-18T06:37:02;11.50;99.90
20070;DHT22;10195;50.868;4.382;2023-03-18T06:39:28;11.50;99.90
20070;DHT22;10195;50.868;4.382;2023-03-18T06:41:54;11.50;99.90
20070;DHT22;10195;50.868;4.382;2023-03-18T06:44:21;11.50;99.90
20070;DHT22;10195;50.868;4.382;2023-03-18T06:46:47;11.60;99.90
20070;DHT22;10195;50.868;4.382;2023-03-18T06:49:13;11.60;99.90
20070;DHT22;10195;50.868;4.382;2023-03-18T06:51:39;11.80;99.90
20070;DHT22;10195;50.868;4.382;2023-03-18T06:54:05;12.00;99.90
20070;DHT22;10195;50.868;4.382;2023-03-18T06:56:31;12.10;99.90
20070;DHT22;10195;50.868;4.382;2023-03-18T06:59:04;12.20;99.90
20070;DHT22;10195;50.868;4.382;2023-03-18T07:01:30;12.30;99.90
20070;DHT22;10195;50.868;4.382;2023-03-18T07:03:58;12.50;99.90
20070;DHT22;10195;50.868;4.382;2023-03-18T07:06:25;12.80;99.90
20070;DHT22;10195;50.868;4.382;2023-03-18T07:08:51;13.00;99.90
20070;DHT22;10195;50.868;4.382;2023-03-18T07:11:17;13.50;99.90
20070;DHT22;10195;50.868;4.382;2023-03-18T07:13:43;14.10;99.90
20070;DHT22;10195;50.868;4.382;2023-03-18T07:16:09;14.20;99.90
20070;DHT22;10195;50.868;4.382;2023-03-18T07:18:35;14.60;99.90
20070;DHT22;10195;50.868;4.382;2023-03-18T07:21:02;14.90;99.90
20070;DHT22;10195;50.868;4.382;2023-03-18T07:23:28;15.40;99.90
20070;DHT22;10195;50.868;4.382;2023-03-18T07:25:54;15.80;99.90
20070;DHT22;10195;50.868;4.382;2023-03-18T07:28:20;16.10;99.90
20070;DHT22;10195;50.868;4.382;2023-03-18T07:30:45;16.10;99.90
20070;DHT22;10195;50.868;4.382;2023-03-18T07:33:12;15.60;99.90
20070;DHT22;10195;50.868;4.382;2023-03-18T07:35:38;15.40;99.90
20070;DHT22;10195;50.868;4.382;2023-03-18T07:38:06;14.80;99.90
20070;DHT22;10195;50.868;4.382;2023-03-18T07:40:32;14.70;99.90
20070;DHT22;10195;50.868;4.382;2023-03-18T07:42:58;14.60;99.90
20070;DHT22;10195;50.868;4.382;2023-03-18T07:45:24;14.50;99.90
20070;DHT22;10195;50.868;4.382;2023-03-18T07:47:50;14.50;99.90
20070;DHT22;10195;50.868;4.382;2023-03-18T07:50:16;14.30;99.90
20070;DHT22;10195;50.868;4.382;2023-03-18T07:52:41;14.30;99.90
20070;DHT22;10195;50.868;4.382;2023-03-18T07:55:07;14.10;99.90
20070;DHT22;10195;50.868;4.382;2023-03-18T07:57:34;14.20;99.90
20070;DHT22;10195;50.868;4.382;2023-03-18T07:59:59;14.50;99.90
20070;DHT22;10195;50.868;4.382;2023-03-18T08:02:25;14.80;99.90
20070;DHT22;10195;50.868;4.382;2023-03-18T08:04:52;14.80;99.90
20070;DHT22;10195;50.868;4.382;2023-03-18T08:07:19;15.00;99.90
20070;DHT22;10195;50.868;4.382;2023-03-18T08:09:44;15.00;99.90
20070;DHT22;10195;50.868;4.382;2023-03-18T08:12:10;14.90;99.90
20070;DHT22;10195;50.868;4.382;2023-03-18T08:14:36;14.80;99.90
20070;DHT22;10195;50.868;4.382;2023-03-18T08:17:02;14.70;99.90
20070;DHT22;10195;50.868;4.382;2023-03-18T08:19:28;14.70;99.90
20070;DHT22;10195;50.868;4.382;2023-03-18T08:21:54;14.50;99.90
20070;DHT22;10195;50.868;4.382;2023-03-18T08:24:20;14.80;99.90
20070;DHT22;10195;50.868;4.382;2023-03-18T08:26:46;14.80;99.90
20070;DHT22;10195;50.868;4.382;2023-03-18T08:29:12;14.70;99.90
20070;DHT22;10195;50.868;4.382;2023-03-18T08:31:38;14.80;99.90
20070;DHT22;10195;50.868;4.382;2023-03-18T08:34:03;14.90;99.90
20070;DHT22;10195;50.868;4.382;2023-03-18T08:36:30;14.90;99.90
20070;DHT22;10195;50.868;4.382;2023-03-18T08:38:56;14.80;99.90
20070;DHT22;10195;50.868;4.382;2023-03-18T08:41:22;14.50;99.90
20070;DHT22;10195;50.868;4.382;2023-03-18T08:43:50;14.60;99.90
20070;DHT22;10195;50.868;4.382;2023-03-18T08:46:17;14.60;99.90
20070;DHT22;10195;50.868;4.382;2023-03-18T08:48:43;14.40;99.90
20070;DHT22;10195;50.868;4.382;2023-03-18T08:51:09;14.60;99.90
20070;DHT22;10195;50.868;4.382;2023-03-18T08:53:39;14.90;99.90
20070;DHT22;10195;50.868;4.382;2023-03-18T08:56:05;15.10;99.90
20070;DHT22;10195;50.868;4.382;2023-03-18T08:58:33;15.00;99.90
20070;DHT22;10195;50.868;4.382;2023-03-18T09:00:59;15.00;99.90
20070;DHT22;10195;50.868;4.382;2023-03-18T09:03:28;14.90;99.90
20070;DHT22;10195;50.868;4.382;2023-03-18T09:05:54;14.90;99.90
20070;DHT22;10195;50.868;4.382;2023-03-18T09:08:21;14.90;99.90
20070;DHT22;10195;50.868;4.382;2023-03-18T09:10:49;15.00;99.90
20070;DHT22;10195;50.868;4.382;2023-03-18T09:13:16;14.90;99.90
20070;DHT22;10195;50.868;4.382;2023-03-18T09:15:42;14.90;99.90
20070;DHT22;10195;50.868;4.382;2023-03-18T09:18:07;15.00;99.90
20070;DHT22;10195;50.868;4.382;2023-03-18T09:20:33;15.10;99.90
20070;DHT22;10195;50.868;4.382;2023-03-18T09:22:59;15.10;99.90
20070;DHT22;10195;50.868;4.382;2023-03-18T09:25:25;15.10;99.90
20070;DHT22;10195;50.868;4.382;2023-03-18T09:27:52;15.30;99.90
20070;DHT22;10195;50.868;4.382;2023-03-18T09:30:18;15.40;99.90
20070;DHT22;10195;50.868;4.382;2023-03-18T09:32:43;15.20;99.90
20070;DHT22;10195;50.868;4.382;2023-03-18T09:35:10;15.10;99.90
20070;DHT22;10195;50.868;4.382;2023-03-18T09:37:36;15.10;99.90
20070;DHT22;10195;50.868;4.382;2023-03-18T09:40:04;15.20;99.90
20070;DHT22;10195;50.868;4.382;2023-03-18T09:45:31;15.30;99.90
20070;DHT22;10195;50.868;4.382;2023-03-18T09:48:26;15.20;99.90
20070;DHT22;10195;50.868;4.382;2023-03-18T09:53:55;15.20;99.90
20070;DHT22;10195;50.868;4.382;2023-03-18T09:56:25;15.40;99.90
20070;DHT22;10195;50.868;4.382;2023-03-18T09:59:15;15.40;99.90
20070;DHT22;10195;50.868;4.382;2023-03-18T10:01:46;15.20;99.90
20070;DHT22;10195;50.868;4.382;2023-03-18T10:04:40;15.20;99.90
20070;DHT22;10195;50.868;4.382;2023-03-18T10:07:13;15.20;99.90
20070;DHT22;10195;50.868;4.382;2023-03-18T10:09:43;15.00;99.90
20070;DHT22;10195;50.868;4.382;2023-03-18T10:12:19;14.90;99.90
20070;DHT22;10195;50.868;4.382;2023-03-18T10:17:51;15.00;99.90
20070;DHT22;10195;50.868;4.382;2023-03-18T10:20:31;14.70;99.90
20070;DHT22;10195;50.868;4.382;2023-03-18T10:23:16;14.70;99.90
20070;DHT22;10195;50.868;4.382;2023-03-18T10:25:51;14.50;99.90
20070;DHT22;10195;50.868;4.382;2023-03-18T10:33:47;14.40;99.90
20070;DHT22;10195;50.868;4.382;2023-03-18T10:36:21;14.20;99.90
20070;DHT22;10195;50.868;4.382;2023-03-18T10:38:50;14.10;99.90
20070;DHT22;10195;50.868;4.382;2023-03-18T10:41:34;14.20;99.90
20070;DHT22;10195;50.868;4.382;2023-03-18T10:44:04;14.30;99.90
20070;DHT22;10195;50.868;4.382;2023-03-18T10:46:32;14.30;99.90
20070;DHT22;10195;50.868;4.382;2023-03-18T10:49:05;14.50;99.90
20070;DHT22;10195;50.868;4.382;2023-03-18T10:56:55;14.80;99.90
20070;DHT22;10195;50.868;4.382;2023-03-18T10:59:22;15.00;99.90
20070;DHT22;10195;50.868;4.382;2023-03-18T11:02:13;15.20;99.90
20070;DHT22;10195;50.868;4.382;2023-03-18T11:04:49;15.40;99.90
20070;DHT22;10195;50.868;4.382;2023-03-18T11:07:23;15.10;99.90
20070;DHT22;10195;50.868;4.382;2023-03-18T11:09:50;15.20;99.90
20070;DHT22;10195;50.868;4.382;2023-03-18T11:12:25;15.40;99.90
20070;DHT22;10195;50.868;4.382;2023-03-18T11:14:53;15.70;99.90
20070;DHT22;10195;50.868;4.382;2023-03-18T11:17:25;16.10;99.90
20070;DHT22;10195;50.868;4.382;2023-03-18T11:20:04;16.10;99.90
20070;DHT22;10195;50.868;4.382;2023-03-18T11:22:36;16.20;99.90
20070;DHT22;10195;50.868;4.382;2023-03-18T11:25:16;16.50;99.90
20070;DHT22;10195;50.868;4.382;2023-03-18T11:27:45;16.50;99.90
20070;DHT22;10195;50.868;4.382;2023-03-18T11:30:24;16.70;99.90
20070;DHT22;10195;50.868;4.382;2023-03-18T11:32:57;16.80;99.90
20070;DHT22;10195;50.868;4.382;2023-03-18T11:35:32;17.20;99.90
20070;DHT22;10195;50.868;4.382;2023-03-18T11:38:02;17.30;99.90
20070;DHT22;10195;50.868;4.382;2023-03-18T11:40:29;17.30;99.90
20070;DHT22;10195;50.868;4.382;2023-03-18T11:43:02;17.10;99.90
20070;DHT22;10195;50.868;4.382;2023-03-18T11:48:16;16.90;99.90
20070;DHT22;10195;50.868;4.382;2023-03-18T11:53:28;16.80;99.90
20070;DHT22;10195;50.868;4.382;2023-03-18T12:10:33;17.70;99.90
20070;DHT22;10195;50.868;4.382;2023-03-18T12:15:54;17.80;99.90
20070;DHT22;10195;50.868;4.382;2023-03-18T12:20:53;17.50;99.90
20070;DHT22;10195;50.868;4.382;2023-03-18T12:33:59;16.70;99.90
20070;DHT22;10195;50.868;4.382;2023-03-18T12:36:36;16.30;99.90
20070;DHT22;10195;50.868;4.382;2023-03-18T12:39:34;16.50;99.90
20070;DHT22;10195;50.868;4.382;2023-03-18T12:42:34;16.80;99.90
20070;DHT22;10195;50.868;4.382;2023-03-18T12:45:05;16.80;99.90
20070;DHT22;10195;50.868;4.382;2023-03-18T12:47:39;17.00;99.90
20070;DHT22;10195;50.868;4.382;2023-03-18T12:50:22;17.20;99.90
20070;DHT22;10195;50.868;4.382;2023-03-18T12:52:55;17.40;99.90
20070;DHT22;10195;50.868;4.382;2023-03-18T12:55:34;17.50;99.90
20070;DHT22;10195;50.868;4.382;2023-03-18T12:58:21;17.80;99.90
20070;DHT22;10195;50.868;4.382;2023-03-18T13:00:58;17.70;99.90
20070;DHT22;10195;50.868;4.382;2023-03-18T13:08:59;17.50;99.90
20070;DHT22;10195;50.868;4.382;2023-03-18T13:11:52;17.70;99.90
20070;DHT22;10195;50.868;4.382;2023-03-18T13:14:25;17.60;99.90
20070;DHT22;10195;50.868;4.382;2023-03-18T13:16:54;17.80;99.90
20070;DHT22;10195;50.868;4.382;2023-03-18T13:19:20;17.80;99.90
20070;DHT22;10195;50.868;4.382;2023-03-18T13:22:16;17.70;99.90
20070;DHT22;10195;50.868;4.382;2023-03-18T13:25:35;17.70;99.90
20070;DHT22;10195;50.868;4.382;2023-03-18T13:43:59;17.20;99.90
20070;DHT22;10195;50.868;4.382;2023-03-18T13:46:28;17.40;99.90
20070;DHT22;10195;50.868;4.382;2023-03-18T13:48:57;17.70;99.90
20070;DHT22;10195;50.868;4.382;2023-03-18T13:53:52;18.00;99.90
20070;DHT22;10195;50.868;4.382;2023-03-18T14:05:02;17.70;99.90
20070;DHT22;10195;50.868;4.382;2023-03-18T14:07:47;17.80;99.90
20070;DHT22;10195;50.868;4.382;2023-03-18T14:10:17;17.70;99.90
20070;DHT22;10195;50.868;4.382;2023-03-18T14:12:45;17.90;99.90
20070;DHT22;10195;50.868;4.382;2023-03-18T14:17:43;18.20;99.90
20070;DHT22;10195;50.868;4.382;2023-03-18T14:20:40;18.10;99.90
20070;DHT22;10195;50.868;4.382;2023-03-18T14:23:32;18.20;99.90
20070;DHT22;10195;50.868;4.382;2023-03-18T14:26:04;17.90;99.90
20070;DHT22;10195;50.868;4.382;2023-03-18T14:28:41;17.90;99.90
20070;DHT22;10195;50.868;4.382;2023-03-18T14:31:20;17.90;99.90
20070;DHT22;10195;50.868;4.382;2023-03-18T14:33:59;17.70;99.90
20070;DHT22;10195;50.868;4.382;2023-03-18T14:39:40;17.60;99.90
20070;DHT22;10195;50.868;4.382;2023-03-18T14:47:55;17.60;99.90
20070;DHT22;10195;50.868;4.382;2023-03-18T14:50:33;17.70;99.90
20070;DHT22;10195;50.868;4.382;2023-03-18T14:55:34;17.90;99.90
20070;DHT22;10195;50.868;4.382;2023-03-18T14:58:01;17.70;99.90
20070;DHT22;10195;50.868;4.382;2023-03-18T15:00:30;17.80;99.90
20070;DHT22;10195;50.868;4.382;2023-03-18T15:03:06;17.70;99.90
20070;DHT22;10195;50.868;4.382;2023-03-18T15:05:37;17.70;99.90
20070;DHT22;10195;50.868;4.382;2023-03-18T15:08:19;17.60;99.90
20070;DHT22;10195;50.868;4.382;2023-03-18T15:10:48;17.60;99.90
20070;DHT22;10195;50.868;4.382;2023-03-18T15:13:18;17.50;99.90
20070;DHT22;10195;50.868;4.382;2023-03-18T15:15:45;17.50;99.90
20070;DHT22;10195;50.868;4.382;2023-03-18T15:18:22;17.70;99.90
20070;DHT22;10195;50.868;4.382;2023-03-18T15:21:19;17.90;99.90
20070;DHT22;10195;50.868;4.382;2023-03-18T15:23:49;17.90;99.90
20070;DHT22;10195;50.868;4.382;2023-03-18T15:26:20;17.70;99.90
20070;DHT22;10195;50.868;4.382;2023-03-18T15:28:47;17.70;99.90
20070;DHT22;10195;50.868;4.382;2023-03-18T15:31:27;17.60;99.90
20070;DHT22;10195;50.868;4.382;2023-03-18T15:34:14;17.50;99.90
20070;DHT22;10195;50.868;4.382;2023-03-18T15:36:43;17.60;99.90
20070;DHT22;10195;50.868;4.382;2023-03-18T15:39:21;17.80;99.90
20070;DHT22;10195;50.868;4.382;2023-03-18T15:41:52;17.70;99.90
20070;DHT22;10195;50.868;4.382;2023-03-18T15:44:38;17.80;99.90
20070;DHT22;10195;50.868;4.382;2023-03-18T15:47:40;17.70;99.90
20070;DHT22;10195;50.868;4.382;2023-03-18T15:50:28;17.70;99.90
20070;DHT22;10195;50.868;4.382;2023-03-18T15:53:27;17.70;99.90
20070;DHT22;10195;50.868;4.382;2023-03-18T15:55:56;17.60;99.90
20070;DHT22;10195;50.868;4.382;2023-03-18T15:58:36;17.40;99.90
20070;DHT22;10195;50.868;4.382;2023-03-18T16:01:03;17.30;99.90
20070;DHT22;10195;50.868;4.382;2023-03-18T16:03:32;17.20;99.90
20070;DHT22;10195;50.868;4.382;2023-03-18T16:05:59;17.20;99.90
20070;DHT22;10195;50.868;4.382;2023-03-18T16:08:26;17.30;99.90
20070;DHT22;10195;50.868;4.382;2023-03-18T16:10:55;17.20;99.90
20070;DHT22;10195;50.868;4.382;2023-03-18T16:13:32;17.20;99.90
20070;DHT22;10195;50.868;4.382;2023-03-18T16:15:58;17.20;99.90
20070;DHT22;10195;50.868;4.382;2023-03-18T16:18:24;17.10;99.90
20070;DHT22;10195;50.868;4.382;2023-03-18T16:20:50;17.00;99.90
20070;DHT22;10195;50.868;4.382;2023-03-18T16:23:18;17.00;99.90
20070;DHT22;10195;50.868;4.382;2023-03-18T16:25:51;17.00;99.90
20070;DHT22;10195;50.868;4.382;2023-03-18T16:28:24;17.30;99.90
20070;DHT22;10195;50.868;4.382;2023-03-18T16:30:51;17.20;99.90
20070;DHT22;10195;50.868;4.382;2023-03-18T16:33:18;17.00;99.90
20070;DHT22;10195;50.868;4.382;2023-03-18T16:35:48;16.90;99.90
20070;DHT22;10195;50.868;4.382;2023-03-18T16:38:16;17.00;99.90
20070;DHT22;10195;50.868;4.382;2023-03-18T16:40:43;17.00;99.90
20070;DHT22;10195;50.868;4.382;2023-03-18T16:43:21;16.80;99.90
20070;DHT22;10195;50.868;4.382;2023-03-18T16:45:50;16.90;99.90
20070;DHT22;10195;50.868;4.382;2023-03-18T16:48:18;16.80;99.90
20070;DHT22;10195;50.868;4.382;2023-03-18T16:50:46;16.90;99.90
20070;DHT22;10195;50.868;4.382;2023-03-18T16:53:23;16.80;99.90
20070;DHT22;10195;50.868;4.382;2023-03-18T16:55:56;16.90;99.90
20070;DHT22;10195;50.868;4.382;2023-03-18T16:58:32;16.90;99.90
20070;DHT22;10195;50.868;4.382;2023-03-18T17:00:59;16.70;99.90
20070;DHT22;10195;50.868;4.382;2023-03-18T17:03:25;16.60;99.90
20070;DHT22;10195;50.868;4.382;2023-03-18T17:05:51;16.60;99.90
20070;DHT22;10195;50.868;4.382;2023-03-18T17:08:21;16.60;99.90
20070;DHT22;10195;50.868;4.382;2023-03-18T17:10:49;16.60;99.90
20070;DHT22;10195;50.868;4.382;2023-03-18T17:13:32;16.60;99.90
20070;DHT22;10195;50.868;4.382;2023-03-18T17:15:58;16.60;99.90
20070;DHT22;10195;50.868;4.382;2023-03-18T17:18:24;16.50;99.90
20070;DHT22;10195;50.868;4.382;2023-03-18T17:20:52;16.60;99.90
20070;DHT22;10195;50.868;4.382;2023-03-18T17:23:23;16.30;99.90
20070;DHT22;10195;50.868;4.382;2023-03-18T17:25:59;15.40;99.90
20070;DHT22;10195;50.868;4.382;2023-03-18T17:28:36;14.80;99.90
20070;DHT22;10195;50.868;4.382;2023-03-18T17:31:03;14.60;99.90
20070;DHT22;10195;50.868;4.382;2023-03-18T17:33:33;14.00;99.90
20070;DHT22;10195;50.868;4.382;2023-03-18T17:36:00;13.60;99.90
20070;DHT22;10195;50.868;4.382;2023-03-18T17:38:27;13.40;99.90
20070;DHT22;10195;50.868;4.382;2023-03-18T17:40:53;13.30;99.90
20070;DHT22;10195;50.868;4.382;2023-03-18T17:43:29;13.10;99.90